Time;durP1;ratioP1;P1;durP2;ratioP2;P2;SDS_P1;SDS_P2;PMS_P1;PMS_P2;Temp;Humidity;BMP_temperature;BMP_pressure;BME280_temperature;BME280_humidity;BME280_pressure;Samples;Min_cycle;Max_cycle;Signal;HPM_P1;HPM_P2
2023/11/21 08:53:00;;;;;;;2.42;2.22;;;;;;;;;;5011958;28;20041;-55
2023/11/21 08:55:29;;;;;;;4.03;1.95;;;;;;;;;;5015223;28;20477;-55
2023/11/21 08:58:02;;;;;;;6.30;3.50;;;;;;;;;;4997689;28;20038;-55
2023/11/21 09:00:32;;;;;;;2.65;1.85;;;;;;;;;;5015111;28;20030;-55
2023/11/21 09:03:08;;;;;;;3.25;2.35;;;;;;;;;;5015065;28;20087;-55
2023/11/21 09:05:48;;;;;;;4.13;2.67;;;;;;;;;;5014973;28;20030;-55
2023/11/21 09:08:40;;;;;;;2.95;2.03;;;;;;;;;;5014996;28;20435;-55
2023/11/21 09:11:11;;;;;;;2.63;2.30;;;;;;;;;;5015218;28;20057;-55
2023/11/21 09:13:39;;;;;;;3.08;2.13;;;;;;;;;;5014639;28;20112;-55
2023/11/21 09:16:07;;;;;;;2.42;1.58;;;;;;;;;;5014906;28;20022;-55
2023/11/21 09:18:35;;;;;;;2.70;2.13;;;;;;;;;;5014756;28;20034;-55
2023/11/21 09:21:04;;;;;;;3.05;2.50;;;;;;;;;;5013605;28;20057;-55
2023/11/21 09:23:38;;;;;;;3.10;2.20;;;;;;;;;;5014654;28;20034;-55
2023/11/21 09:26:10;;;;;;;2.92;2.33;;;;;;;;;;5014593;28;20472;-55
2023/11/21 09:28:43;;;;;;;3.20;2.20;;;;;;;;;;5014718;28;20025;-55
2023/11/21 09:31:10;;;;;;;2.85;2.35;;;;;;;;;;5014609;28;20388;-55
2023/11/21 09:33:38;;;;;;;3.25;2.35;;;;;;;;;;5014409;28;20045;-55
2023/11/21 09:36:04;;;;;;;3.85;2.75;;;;;;;;;;5013280;28;20037;-55
2023/11/21 09:38:31;;;;;;;3.42;2.75;;;;;;;;;;5014664;28;20041;-55
2023/11/21 09:41:04;;;;;;;3.70;2.70;;;;;;;;;;5014389;28;20026;-55
2023/11/21 09:43:38;;;;;;;3.78;2.70;;;;;;;;;;5014437;28;20476;-55
2023/11/21 09:46:10;;;;;;;2.92;2.08;;;;;;;;;;5014389;28;20033;-55
2023/11/21 09:48:37;;;;;;;2.77;2.40;;;;;;;;;;5014373;28;20480;-55
2023/11/21 09:51:08;;;;;;;1.90;1.73;;;;;;;;;;5014330;28;20030;-55
2023/11/21 09:53:34;;;;;;;2.92;2.08;;;;;;;;;;5012677;28;20346;-55
2023/11/21 09:56:02;;;;;;;2.20;1.65;;;;;;;;;;5014270;28;20018;-55
2023/11/21 09:58:27;;;;;;;2.28;1.80;;;;;;;;;;5014190;28;20452;-55
2023/11/21 10:01:00;;;;;;;2.40;1.52;;;;;;;;;;5014150;28;20113;-55
2023/11/21 10:03:29;;;;;;;2.17;1.80;;;;;;;;;;5014136;28;20045;-55
2023/11/21 10:06:12;;;;;;;2.00;1.90;;;;;;;;;;5014040;28;20075;-55
2023/11/21 10:08:47;;;;;;;2.00;1.75;;;;;;;;;;5014598;28;20080;-55
2023/11/21 10:11:33;;;;;;;;;;;;;;;;;;;;;
2023/11/21 10:14:04;;;;;;;2.28;2.08;;;;;;;;;;5012545;28;20045;-55
2023/11/21 10:16:47;;;;;;;;;;;;;;;;;;;;;
2023/11/21 10:19:15;;;;;;;2.13;1.83;;;;;;;;;;5010274;28;20444;-55
2023/11/21 10:21:41;;;;;;;2.30;1.88;;;;;;;;;;5013899;28;20057;-55
2023/11/21 10:24:07;;;;;;;2.22;2.00;;;;;;;;;;5013881;28;20034;-55
2023/11/21 10:26:42;;;;;;;3.60;2.08;;;;;;;;;;4996439;28;20083;-55
2023/11/21 10:29:15;;;;;;;2.13;1.92;;;;;;;;;;4996238;28;20034;-55
2023/11/21 10:31:45;;;;;;;2.00;1.83;;;;;;;;;;4996199;28;20030;-55
2023/11/21 10:34:36;;;;;;;2.75;2.03;;;;;;;;;;5013823;28;20469;-55
2023/11/21 10:37:27;;;;;;;2.28;1.77;;;;;;;;;;5013779;28;20030;-55
2023/11/21 10:40:02;;;;;;;3.13;1.70;;;;;;;;;;5013667;28;20022;-55
2023/11/21 10:42:37;;;;;;;2.95;1.65;;;;;;;;;;5013862;28;20061;-55
2023/11/21 10:45:22;;;;;;;2.65;1.70;;;;;;;;;;4997966;28;20514;-55
2023/11/21 10:47:57;;;;;;;14.02;7.38;;;;;;;;;;5017109;28;20489;-55
2023/11/21 10:50:37;;;;;;;12.27;6.78;;;;;;;;;;5017677;28;20029;-55
2023/11/21 10:53:09;;;;;;;4.82;3.83;;;;;;;;;;5017282;28;20392;-55
2023/11/21 10:55:45;;;;;;;2.47;2.28;;;;;;;;;;5017622;28;20062;-55
2023/11/21 10:58:13;;;;;;;2.78;2.45;;;;;;;;;;5016384;28;20036;-55
2023/11/21 11:00:44;;;;;;;2.53;2.33;;;;;;;;;;5017421;28;20026;-55
2023/11/21 11:03:14;;;;;;;4.03;3.20;;;;;;;;;;5017407;28;20036;-55
2023/11/21 11:05:42;;;;;;;1.98;1.88;;;;;;;;;;5017257;28;20120;-55
2023/11/21 11:08:18;;;;;;;2.35;2.17;;;;;;;;;;5017243;28;20041;-55
2023/11/21 11:10:46;;;;;;;1.88;1.67;;;;;;;;;;5017250;28;20483;-55
2023/11/21 11:13:17;;;;;;;3.65;2.35;;;;;;;;;;5017186;28;20061;-55
2023/11/21 11:15:43;;;;;;;2.03;1.83;;;;;;;;;;5017050;28;20026;-55
2023/11/21 11:18:09;;;;;;;2.00;1.90;;;;;;;;;;5028605;23;20054;-56
2023/11/21 11:21:07;;;;;;;2.08;1.83;;;;;;;;;;5024818;23;20453;-55
2023/11/21 11:29:50;;;;;;;1.77;1.60;;;;;;;;;;4996129;28;20044;-59
2023/11/21 11:32:27;;;;;;;2.83;2.15;;;;;;;;;;4997338;28;20436;-59
2023/11/21 11:35:06;;;;;;;2.08;1.88;;;;;;;;;;4997588;28;20044;-59
2023/11/21 11:37:32;;;;;;;1.73;1.63;;;;;;;;;;4997244;28;20531;-59
2023/11/21 11:39:58;;;;;;;2.17;2.00;;;;;;;;;;4997141;28;20030;-59
2023/11/21 11:42:24;;;;;;;2.42;1.85;;;;;;;;;;4997434;28;20041;-59
2023/11/21 11:44:51;;;;;;;2.47;1.92;;;;;;;;;;4997338;28;20023;-60
2023/11/21 11:47:19;;;;;;;2.40;2.03;;;;;;;;;;4997305;28;20030;-60
2023/11/21 11:50:02;;;;;;;2.40;1.98;;;;;;;;;;4996991;28;20040;-60
2023/11/21 11:52:38;;;;;;;2.58;1.95;;;;;;;;;;4996905;28;20049;-60
2023/11/21 11:55:04;;;;;;;3.10;2.25;;;;;;;;;;4995447;28;20459;-60
2023/11/21 11:57:31;;;;;;;3.80;2.13;;;;;;;;;;4996696;28;20058;-60
2023/11/21 12:00:10;;;;;;;2.97;2.53;;;;;;;;;;4996426;28;20033;-60
2023/11/21 12:02:37;;;;;;;2.65;2.00;;;;;;;;;;4997022;28;20038;-59
2023/11/21 12:05:09;;;;;;;2.28;2.08;;;;;;;;;;4996981;28;20027;-59
2023/11/21 12:07:48;;;;;;;1.23;1.15;;;;;;;;;;5011793;28;20117;-59
2023/11/21 12:10:20;;;;;;;1.38;1.27;;;;;;;;;;4997159;28;20386;-59
2023/11/21 12:12:46;;;;;;;1.40;1.30;;;;;;;;;;4996631;28;20034;-59
2023/11/21 12:15:14;;;;;;;1.77;1.45;;;;;;;;;;5011508;28;20034;-59
2023/11/21 12:17:45;;;;;;;2.28;1.48;;;;;;;;;;5011911;28;20081;-59
2023/11/21 12:20:14;;;;;;;1.83;1.40;;;;;;;;;;4996733;28;20031;-59
2023/11/21 12:22:42;;;;;;;2.35;1.38;;;;;;;;;;4996315;28;20034;-59
2023/11/21 12:25:15;;;;;;;2.10;1.73;;;;;;;;;;4996378;28;20034;-59
2023/11/21 12:27:49;;;;;;;2.03;1.63;;;;;;;;;;4996151;28;20038;-59
2023/11/21 12:30:18;;;;;;;1.05;1.05;;;;;;;;;;4996901;28;20385;-59
2023/11/21 12:32:53;;;;;;;1.50;1.40;;;;;;;;;;4996223;28;20468;-59
2023/11/21 12:35:22;;;;;;;3.20;1.67;;;;;;;;;;5011117;28;20388;-60
2023/11/21 12:38:02;;;;;;;4.43;3.22;;;;;;;;;;4996374;28;20018;-60
2023/11/21 12:40:30;;;;;;;3.50;3.17;;;;;;;;;;4996323;28;20109;-60
2023/11/21 12:43:04;;;;;;;2.10;1.95;;;;;;;;;;4996275;28;20080;-60
2023/11/21 12:45:30;;;;;;;1.60;1.50;;;;;;;;;;4995540;28;20070;-59
2023/11/21 12:47:59;;;;;;;1.60;1.40;;;;;;;;;;4995835;28;20548;-59
2023/11/21 12:50:32;;;;;;;1.95;1.50;;;;;;;;;;4994682;28;20031;-59
2023/11/21 12:53:00;;;;;;;1.45;1.35;;;;;;;;;;4995984;28;20042;-59
2023/11/21 12:55:26;;;;;;;1.50;1.40;;;;;;;;;;4994808;28;20058;-59
2023/11/21 12:57:56;;;;;;;1.95;1.13;;;;;;;;;;4995942;28;20061;-59
2023/11/21 13:00:31;;;;;;;2.95;2.72;;;;;;;;;;4995973;28;20022;-59
2023/11/21 13:03:02;;;;;;;4.03;2.65;;;;;;;;;;4995552;28;20027;-60
2023/11/21 13:05:32;;;;;;;3.08;2.75;;;;;;;;;;4996118;28;20030;-60
2023/11/21 13:08:20;;;;;;;2.35;2.15;;;;;;;;;;4995483;28;20057;-60
2023/11/21 13:10:49;;;;;;;2.40;2.20;;;;;;;;;;4994306;28;20034;-60
2023/11/21 13:13:20;;;;;;;3.85;2.95;;;;;;;;;;4995434;28;20026;-60
2023/11/21 13:15:57;;;;;;;3.40;2.85;;;;;;;;;;4995567;28;20034;-59
2023/11/21 13:18:26;;;;;;;;;;;;;;;;;;4996083;28;20022;-60
2023/11/21 13:20:55;;;;;;;3.22;2.40;;;;;;;;;;4995396;28;19910;-60
2023/11/21 13:23:27;;;;;;;2.55;2.35;;;;;;;;;;4994021;28;20106;-60
2023/11/21 13:25:56;;;;;;;3.05;2.40;;;;;;;;;;5010286;28;20045;-60
2023/11/21 13:28:23;;;;;;;3.25;2.95;;;;;;;;;;4995153;28;20050;-60
2023/11/21 13:30:53;;;;;;;4.35;2.97;;;;;;;;;;4995654;28;20110;-60
2023/11/21 13:33:21;;;;;;;2.95;2.75;;;;;;;;;;4995041;28;20034;-60
2023/11/21 13:35:51;;;;;;;2.75;2.55;;;;;;;;;;4994895;28;20034;-60
2023/11/21 13:38:18;;;;;;;4.25;3.10;;;;;;;;;;4991887;28;20053;-60
2023/11/21 13:40:53;;;;;;;3.17;2.83;;;;;;;;;;4993775;28;20031;-60
2023/11/21 13:43:20;;;;;;;3.67;2.88;;;;;;;;;;4994905;28;20030;-60
2023/11/21 13:45:46;;;;;;;5.07;3.20;;;;;;;;;;4994862;28;20420;-60
2023/11/21 13:49:10;;;;;;;4.47;3.35;;;;;;;;;;4977568;28;20050;-60
2023/11/21 13:51:30;;;;;;;3.13;2.83;;;;;;;;;;4984630;28;20049;-60
2023/11/21 13:53:59;;;;;;;3.15;2.67;;;;;;;;;;4995127;28;20034;-60
2023/11/21 13:56:27;;;;;;;5.05;3.70;;;;;;;;;;4994521;28;20048;-60
2023/11/21 13:58:55;;;;;;;3.70;2.75;;;;;;;;;;4994656;28;20018;-59
2023/11/21 14:06:47;;;;;;;3.38;3.13;;;;;;;;;;4995058;28;20038;-59
2023/11/21 14:09:27;;;;;;;3.20;3.00;;;;;;;;;;4995037;28;20038;-60
2023/11/21 14:12:02;;;;;;;3.30;3.00;;;;;;;;;;4995282;28;20038;-60
2023/11/21 14:14:33;;;;;;;3.35;3.03;;;;;;;;;;4994657;28;20022;-60
2023/11/21 14:17:06;;;;;;;;;;;;;;;;;;4995408;28;20034;-60
2023/11/21 14:19:38;;;;;;;4.20;3.15;;;;;;;;;;4994658;28;19910;-60
2023/11/21 14:22:31;;;;;;;3.42;2.80;;;;;;;;;;4979358;28;20022;-60
2023/11/21 14:25:04;;;;;;;4.00;2.80;;;;;;;;;;4994560;28;20038;-60
2023/11/21 14:27:37;;;;;;;3.63;3.15;;;;;;;;;;4976475;28;20121;-59
2023/11/21 14:30:19;;;;;;;4.88;3.40;;;;;;;;;;4994784;28;20381;-59
2023/11/21 14:32:50;;;;;;;3.47;2.97;;;;;;;;;;4992947;28;20034;-59
2023/11/21 14:35:23;;;;;;;2.92;2.72;;;;;;;;;;4994442;28;20068;-59
2023/11/21 14:37:58;;;;;;;3.75;3.30;;;;;;;;;;4977869;28;20034;-59
2023/11/21 14:43:17;;;;;;;4.88;3.45;;;;;;;;;;4989433;28;20195;-60
2023/11/21 14:45:59;;;;;;;5.43;3.90;;;;;;;;;;4994005;28;20109;-60
2023/11/21 14:54:39;;;;;;;7.05;5.28;;;;;;;;;;4981243;28;20579;-60
2023/11/21 14:57:24;;;;;;;7.03;5.22;;;;;;;;;;4974397;28;20077;-60
2023/11/21 14:59:57;;;;;;;6.28;4.93;;;;;;;;;;4974256;28;20031;-60
2023/11/21 15:02:51;;;;;;;7.72;5.50;;;;;;;;;;4974398;28;20461;-60
2023/11/21 15:05:27;;;;;;;6.97;5.60;;;;;;;;;;4993361;28;20110;-60
2023/11/21 15:07:58;;;;;;;7.47;5.30;;;;;;;;;;4993644;28;20069;-60
2023/11/21 15:10:45;;;;;;;6.63;5.00;;;;;;;;;;4993366;28;20115;-60
2023/11/21 15:13:16;;;;;;;6.00;4.97;;;;;;;;;;4992887;28;20042;-60
2023/11/21 15:15:46;;;;;;;7.10;5.15;;;;;;;;;;4993080;28;20077;-60
2023/11/21 15:18:20;;;;;;;5.15;4.10;;;;;;;;;;4992601;28;20030;-60
2023/11/21 15:20:54;;;;;;;4.28;3.83;;;;;;;;;;4992437;28;20433;-60
2023/11/21 15:23:30;;;;;;;7.57;5.47;;;;;;;;;;4993763;28;20035;-60
2023/11/21 15:25:59;;;;;;;24.60;15.20;;;;;;;;;;4993730;28;20109;-60
2023/11/21 15:28:35;;;;;;;8.68;6.55;;;;;;;;;;4993519;28;20070;-60
2023/11/21 15:31:19;;;;;;;11.32;8.43;;;;;;;;;;4975580;28;20030;-60
2023/11/21 15:33:52;;;;;;;35.15;17.63;;;;;;;;;;4994795;28;20044;-59
2023/11/21 15:36:21;;;;;;;59.03;26.80;;;;;;;;;;4995823;28;20441;-60
2023/11/21 15:38:56;;;;;;;45.33;24.10;;;;;;;;;;4995842;28;20022;-60
2023/11/21 15:41:30;;;;;;;43.40;22.40;;;;;;;;;;4996730;28;20030;-60
2023/11/21 15:51:30;;;;;;;25.25;14.80;;;;;;;;;;4957190;29;20090;-69
2023/11/21 15:53:55;;;;;;;22.85;14.82;;;;;;;;;;4957172;29;20062;-69
2023/11/21 15:56:20;;;;;;;25.48;15.70;;;;;;;;;;4955859;29;20027;-69
2023/11/21 15:58:46;;;;;;;21.77;14.63;;;;;;;;;;4957333;29;20117;-73
2023/11/21 16:01:15;;;;;;;24.20;14.68;;;;;;;;;;4958561;29;20038;-71
2023/11/21 16:03:40;;;;;;;24.60;14.68;;;;;;;;;;4973324;28;20023;-71
2023/11/21 16:06:09;;;;;;;26.88;16.75;;;;;;;;;;4956850;29;20027;-71
2023/11/21 16:08:36;;;;;;;26.90;17.10;;;;;;;;;;4958005;29;20046;-71
2023/11/21 16:11:09;;;;;;;75.63;40.47;;;;;;;;;;4958349;29;20098;-71
2023/11/21 16:13:34;;;;;;;33.22;28.08;;;;;;;;;;4955820;29;20034;-72
2023/11/21 16:16:00;;;;;;;172.90;93.00;;;;;;;;;;4956602;29;20031;-71
2023/11/21 16:18:25;;;;;;;83.00;55.28;;;;;;;;;;4956573;29;20061;-72
2023/11/21 16:20:51;;;;;;;55.83;44.85;;;;;;;;;;4956526;29;20024;-72
2023/11/21 16:23:16;;;;;;;35.33;29.27;;;;;;;;;;4956538;29;20478;-72
2023/11/21 16:25:42;;;;;;;37.80;28.60;;;;;;;;;;4956460;29;20042;-72
2023/11/21 16:28:07;;;;;;;34.70;24.52;;;;;;;;;;4956359;29;20118;-72
2023/11/21 16:30:33;;;;;;;22.70;16.88;;;;;;;;;;4956595;29;20023;-69
2023/11/21 16:33:05;;;;;;;67.85;40.08;;;;;;;;;;4956325;29;20027;-70
2023/11/21 16:35:31;;;;;;;79.03;40.58;;;;;;;;;;4956227;29;20039;-70
2023/11/21 16:37:57;;;;;;;116.40;50.55;;;;;;;;;;4956568;29;20034;-71
2023/11/21 16:40:22;;;;;;;81.72;43.78;;;;;;;;;;4971247;28;20374;-71
2023/11/21 16:42:47;;;;;;;57.88;31.67;;;;;;;;;;4956636;29;20050;-73
2023/11/21 16:45:13;;;;;;;30.55;18.70;;;;;;;;;;4956246;28;20038;-70
2023/11/21 16:47:42;;;;;;;59.75;35.33;;;;;;;;;;4956098;28;20052;-71
2023/11/21 16:50:08;;;;;;;57.03;32.20;;;;;;;;;;4956789;29;20039;-69
2023/11/21 16:52:34;;;;;;;23.10;13.07;;;;;;;;;;4957134;28;20054;-70
2023/11/21 16:54:59;;;;;;;31.83;23.50;;;;;;;;;;4955056;29;20027;-70
2023/11/21 16:57:24;;;;;;;30.30;27.15;;;;;;;;;;4956448;28;20118;-70
2023/11/21 16:59:50;;;;;;;18.88;16.88;;;;;;;;;;4957003;28;20027;-70
2023/11/21 17:02:18;;;;;;;20.77;18.58;;;;;;;;;;4955677;29;20027;-70
2023/11/21 17:04:46;;;;;;;16.98;13.73;;;;;;;;;;4956442;28;20118;-69
2023/11/21 17:07:16;;;;;;;17.70;14.10;;;;;;;;;;4954751;28;20031;-70
2023/11/21 17:09:41;;;;;;;22.23;19.90;;;;;;;;;;4954757;28;20470;-70
2023/11/21 17:12:06;;;;;;;24.40;19.92;;;;;;;;;;4954716;28;20082;-70
2023/11/21 17:14:32;;;;;;;30.42;24.38;;;;;;;;;;4954516;28;20122;-70
2023/11/21 17:16:57;;;;;;;28.33;25.20;;;;;;;;;;4954637;28;20035;-70
2023/11/21 17:19:23;;;;;;;28.17;25.10;;;;;;;;;;4953305;29;20031;-70
2023/11/21 17:21:48;;;;;;;29.70;24.92;;;;;;;;;;4954522;29;20024;-70
2023/11/21 17:24:13;;;;;;;65.85;49.67;;;;;;;;;;4954422;28;20055;-70
2023/11/21 17:26:42;;;;;;;146.77;97.85;;;;;;;;;;4956257;28;20072;-70
2023/11/21 17:29:10;;;;;;;54.58;41.38;;;;;;;;;;4956758;28;20084;-70
2023/11/21 17:31:36;;;;;;;54.45;37.97;;;;;;;;;;4956326;28;20534;-70
2023/11/21 17:34:01;;;;;;;75.32;50.75;;;;;;;;;;4955259;29;20031;-70
2023/11/21 17:36:27;;;;;;;111.43;60.22;;;;;;;;;;4956304;28;20046;-70
2023/11/21 17:38:53;;;;;;;107.35;69.25;;;;;;;;;;4956177;29;20031;-70
2023/11/21 17:41:20;;;;;;;116.15;73.32;;;;;;;;;;4954994;28;20051;-69
2023/11/21 17:43:46;;;;;;;52.80;36.72;;;;;;;;;;4937929;29;20113;-70
2023/11/21 17:46:11;;;;;;;22.40;15.15;;;;;;;;;;4960715;28;20158;-70
2023/11/21 17:48:40;;;;;;;23.65;15.02;;;;;;;;;;4975342;28;20078;-69
2023/11/21 17:51:05;;;;;;;69.40;34.38;;;;;;;;;;4975292;28;20113;-70
2023/11/21 17:53:31;;;;;;;109.63;59.45;;;;;;;;;;4957900;28;20097;-70
2023/11/21 17:55:56;;;;;;;63.85;35.67;;;;;;;;;;4974495;28;20381;-70
2023/11/21 17:58:21;;;;;;;130.07;72.60;;;;;;;;;;4975114;28;20022;-69
2023/11/21 18:00:47;;;;;;;66.15;38.28;;;;;;;;;;4974688;28;20026;-69
2023/11/21 18:03:12;;;;;;;90.25;55.92;;;;;;;;;;4975509;28;20031;-65
2023/11/21 18:05:37;;;;;;;125.85;76.32;;;;;;;;;;4975387;28;20041;-72
2023/11/21 18:08:03;;;;;;;87.32;68.65;;;;;;;;;;4975764;28;20034;-72
2023/11/21 18:10:29;;;;;;;30.90;17.02;;;;;;;;;;4975378;28;20038;-71
2023/11/21 18:12:54;;;;;;;17.52;11.15;;;;;;;;;;4974917;28;20476;-72
2023/11/21 18:15:20;;;;;;;30.98;18.48;;;;;;;;;;4975484;28;20042;-73
2023/11/21 18:17:46;;;;;;;55.45;38.95;;;;;;;;;;4975378;28;20051;-72
2023/11/21 18:20:12;;;;;;;30.67;21.00;;;;;;;;;;4957743;28;20081;-73
2023/11/21 18:22:38;;;;;;;39.15;29.25;;;;;;;;;;4974916;28;20031;-72
2023/11/21 18:25:04;;;;;;;33.25;19.80;;;;;;;;;;4974853;28;20035;-72
2023/11/21 18:27:29;;;;;;;23.60;16.30;;;;;;;;;;4956854;28;20077;-72
2023/11/21 18:29:55;;;;;;;22.23;18.92;;;;;;;;;;4974401;28;20035;-73
2023/11/21 18:32:22;;;;;;;11.85;9.88;;;;;;;;;;4973505;28;20512;-72
2023/11/21 18:34:49;;;;;;;23.45;18.95;;;;;;;;;;4957307;28;20444;-72
2023/11/21 18:37:15;;;;;;;28.38;22.83;;;;;;;;;;4974809;28;20023;-73
2023/11/21 18:39:42;;;;;;;20.27;16.90;;;;;;;;;;4974743;28;20117;-72
2023/11/21 18:42:08;;;;;;;16.77;15.00;;;;;;;;;;4957338;28;20063;-73
2023/11/21 18:44:33;;;;;;;13.68;12.45;;;;;;;;;;4974871;28;20018;-72
2023/11/21 18:46:59;;;;;;;14.35;12.85;;;;;;;;;;4974837;28;20054;-72
2023/11/21 18:49:24;;;;;;;23.67;16.42;;;;;;;;;;4974652;28;20157;-73
2023/11/21 18:51:49;;;;;;;16.98;13.85;;;;;;;;;;4974542;28;20035;-71
2023/11/21 18:54:15;;;;;;;11.60;10.45;;;;;;;;;;4974631;28;20042;-73
2023/11/21 18:56:42;;;;;;;34.75;19.48;;;;;;;;;;4974866;28;20031;-71
2023/11/21 18:59:09;;;;;;;93.05;39.38;;;;;;;;;;4957499;28;20476;-72
2023/11/21 19:01:35;;;;;;;35.15;17.30;;;;;;;;;;4974808;28;20077;-72
2023/11/21 19:04:01;;;;;;;73.78;29.33;;;;;;;;;;4974618;28;20485;-72
2023/11/21 19:06:26;;;;;;;13.93;7.90;;;;;;;;;;4957192;28;20023;-71
2023/11/21 19:08:52;;;;;;;8.93;7.25;;;;;;;;;;4977779;28;20362;-71
2023/11/21 19:11:17;;;;;;;13.70;10.05;;;;;;;;;;4978272;28;20115;-71
2023/11/21 19:13:43;;;;;;;16.80;12.73;;;;;;;;;;4978497;28;20461;-71
2023/11/21 19:16:09;;;;;;;26.30;21.48;;;;;;;;;;4978078;28;20065;-73
2023/11/21 19:18:34;;;;;;;11.95;9.82;;;;;;;;;;4978360;28;20470;-72
2023/11/21 19:20:59;;;;;;;4.53;4.13;;;;;;;;;;4978069;28;20023;-72
2023/11/21 19:23:25;;;;;;;29.17;14.43;;;;;;;;;;4978303;28;20033;-72
2023/11/21 19:25:50;;;;;;;23.95;13.00;;;;;;;;;;4977949;28;20400;-72
2023/11/21 19:28:16;;;;;;;14.95;10.05;;;;;;;;;;4978279;28;20039;-72
2023/11/21 19:30:42;;;;;;;17.63;13.55;;;;;;;;;;4978209;28;20029;-73
2023/11/21 19:33:07;;;;;;;13.18;8.52;;;;;;;;;;4976876;28;20039;-73
2023/11/21 19:35:38;;;;;;;11.40;8.80;;;;;;;;;;4960481;28;20043;-72
2023/11/21 19:38:08;;;;;;;19.20;12.18;;;;;;;;;;4960729;28;20031;-72
2023/11/21 19:40:34;;;;;;;12.70;9.90;;;;;;;;;;4978505;28;20027;-73
2023/11/21 19:43:00;;;;;;;54.65;31.02;;;;;;;;;;4978028;28;20034;-72
2023/11/21 19:45:31;;;;;;;19.70;14.68;;;;;;;;;;4978124;28;20458;-72
2023/11/21 19:47:57;;;;;;;14.10;10.25;;;;;;;;;;4958529;29;20039;-72
2023/11/21 19:50:22;;;;;;;19.45;12.70;;;;;;;;;;4975208;28;20446;-72
2023/11/21 19:52:47;;;;;;;8.93;6.70;;;;;;;;;;4978021;28;20042;-73
2023/11/21 19:55:13;;;;;;;123.72;64.88;;;;;;;;;;4960710;28;20034;-73
2023/11/21 19:57:40;;;;;;;12.80;8.10;;;;;;;;;;4977640;28;20106;-71
2023/11/21 20:00:12;;;;;;;7.00;5.47;;;;;;;;;;4960397;28;20366;-69
2023/11/21 20:02:37;;;;;;;16.05;7.43;;;;;;;;;;4977501;28;20027;-69
2023/11/21 20:05:03;;;;;;;4.93;4.40;;;;;;;;;;4959942;28;20404;-69
2023/11/21 20:07:31;;;;;;;7.82;5.95;;;;;;;;;;4977708;28;20054;-69
2023/11/21 20:10:00;;;;;;;11.63;9.95;;;;;;;;;;4960552;28;20034;-69
2023/11/21 20:12:25;;;;;;;17.35;14.77;;;;;;;;;;4960321;28;20442;-69
2023/11/21 20:14:51;;;;;;;16.95;11.80;;;;;;;;;;4977808;28;20074;-69
2023/11/21 20:17:17;;;;;;;13.57;10.50;;;;;;;;;;4977431;28;20042;-69
2023/11/21 20:19:43;;;;;;;5.07;4.57;;;;;;;;;;4976877;28;20023;-71
2023/11/21 20:22:09;;;;;;;11.65;8.93;;;;;;;;;;4977009;28;20118;-69
2023/11/21 20:24:35;;;;;;;12.43;11.20;;;;;;;;;;4976559;28;20111;-69
2023/11/21 20:27:04;;;;;;;15.10;13.43;;;;;;;;;;4976635;28;20026;-69
2023/11/21 20:29:31;;;;;;;50.17;35.30;;;;;;;;;;4959276;28;20066;-69
2023/11/21 20:32:00;;;;;;;21.52;14.73;;;;;;;;;;4976620;28;20462;-69
2023/11/21 20:34:26;;;;;;;28.63;18.20;;;;;;;;;;4976486;28;20074;-69
2023/11/21 20:36:52;;;;;;;22.73;16.42;;;;;;;;;;4959164;28;20062;-69
2023/11/21 20:39:18;;;;;;;29.08;18.85;;;;;;;;;;4976525;28;20106;-69
2023/11/21 20:41:43;;;;;;;31.17;19.10;;;;;;;;;;4976740;28;20343;-69
2023/11/21 20:44:09;;;;;;;20.13;14.35;;;;;;;;;;4976184;28;20580;-69
2023/11/21 20:46:45;;;;;;;26.63;16.70;;;;;;;;;;4976133;28;20078;-69
2023/11/21 20:49:10;;;;;;;33.28;16.08;;;;;;;;;;4975967;28;20031;-69
2023/11/21 20:51:36;;;;;;;37.05;17.85;;;;;;;;;;4976191;28;20037;-69
2023/11/21 20:54:02;;;;;;;38.22;19.65;;;;;;;;;;4975865;28;20362;-69
2023/11/21 20:56:43;;;;;;;31.25;13.43;;;;;;;;;;4975746;28;20377;-69
2023/11/21 20:59:09;;;;;;;13.25;7.63;;;;;;;;;;4975877;28;20034;-69
2023/11/21 21:01:34;;;;;;;12.20;7.07;;;;;;;;;;4975803;28;20019;-69
2023/11/21 21:04:01;;;;;;;7.75;5.55;;;;;;;;;;4975973;28;20078;-69
2023/11/21 21:06:27;;;;;;;12.32;7.88;;;;;;;;;;4974596;28;20042;-69
2023/11/21 21:08:54;;;;;;;13.75;7.28;;;;;;;;;;4975789;28;20346;-69
2023/11/21 21:11:20;;;;;;;9.90;6.25;;;;;;;;;;4974844;28;20086;-69
2023/11/21 21:13:52;;;;;;;18.77;8.45;;;;;;;;;;4975360;28;20042;-69
2023/11/21 21:16:25;;;;;;;13.30;7.93;;;;;;;;;;4976413;28;20070;-70
2023/11/21 21:18:54;;;;;;;14.02;11.10;;;;;;;;;;4976041;28;20041;-69
2023/11/21 21:21:20;;;;;;;5.55;4.60;;;;;;;;;;4975499;28;20532;-68
2023/11/21 21:23:45;;;;;;;6.22;5.63;;;;;;;;;;4968100;28;20446;-73
2023/11/21 21:26:11;;;;;;;10.27;7.88;;;;;;;;;;4956735;28;20031;-73
2023/11/21 21:28:36;;;;;;;17.42;15.80;;;;;;;;;;4956813;28;20355;-66
2023/11/21 21:31:02;;;;;;;45.45;34.92;;;;;;;;;;4956057;28;20058;-73
2023/11/21 21:33:27;;;;;;;56.38;42.53;;;;;;;;;;4956766;28;20038;-73
2023/11/21 21:35:53;;;;;;;80.95;72.90;;;;;;;;;;4956394;28;20066;-72
2023/11/21 21:38:18;;;;;;;59.15;53.22;;;;;;;;;;4955430;29;20070;-73
2023/11/21 21:40:44;;;;;;;13.20;11.93;;;;;;;;;;4956337;28;20516;-72
2023/11/21 21:43:09;;;;;;;12.07;11.02;;;;;;;;;;4956905;28;20030;-72
2023/11/21 21:45:37;;;;;;;16.40;14.80;;;;;;;;;;4955655;28;20478;-73
2023/11/21 21:48:02;;;;;;;12.20;10.27;;;;;;;;;;4958783;28;20101;-72
2023/11/21 21:50:29;;;;;;;9.20;7.97;;;;;;;;;;4958710;28;20496;-72
2023/11/21 21:52:54;;;;;;;34.38;14.07;;;;;;;;;;4958565;28;20035;-73
2023/11/21 21:55:20;;;;;;;14.75;9.65;;;;;;;;;;4958418;28;20062;-72
2023/11/21 21:57:45;;;;;;;24.67;12.68;;;;;;;;;;4975497;28;20026;-72
2023/11/21 22:00:12;;;;;;;15.75;10.60;;;;;;;;;;4975871;28;20050;-73
2023/11/21 22:02:42;;;;;;;26.23;13.05;;;;;;;;;;4958503;28;20034;-72
2023/11/21 22:05:11;;;;;;;265.85;85.82;;;;;;;;;;4975064;28;20034;-70
2023/11/21 22:07:37;;;;;;;11.10;9.93;;;;;;;;;;4975112;28;20038;-69
2023/11/21 22:10:02;;;;;;;11.07;8.90;;;;;;;;;;4957506;28;20031;-70
2023/11/21 22:12:28;;;;;;;10.65;9.02;;;;;;;;;;4975095;28;20086;-72
2023/11/21 22:14:53;;;;;;;8.88;7.97;;;;;;;;;;4974742;28;20061;-73
2023/11/21 22:17:18;;;;;;;9.38;8.13;;;;;;;;;;4974938;28;20031;-73
2023/11/21 22:19:44;;;;;;;10.18;9.18;;;;;;;;;;4974814;28;20029;-73
2023/11/21 22:22:09;;;;;;;9.57;8.65;;;;;;;;;;4974760;28;20110;-73
2023/11/21 22:24:36;;;;;;;26.83;12.45;;;;;;;;;;4974707;28;20038;-73
2023/11/21 22:27:01;;;;;;;20.45;11.43;;;;;;;;;;4957357;28;20035;-73
2023/11/21 22:29:27;;;;;;;28.38;13.82;;;;;;;;;;4974273;28;20049;-72
2023/11/21 22:31:58;;;;;;;16.42;11.20;;;;;;;;;;4974496;28;20038;-72
2023/11/21 22:34:24;;;;;;;29.08;14.45;;;;;;;;;;4957062;28;20041;-70
2023/11/21 22:36:53;;;;;;;26.60;12.90;;;;;;;;;;4957291;28;20034;-70
2023/11/21 22:39:19;;;;;;;17.10;11.07;;;;;;;;;;4974881;28;20027;-68
2023/11/21 22:41:45;;;;;;;17.83;10.40;;;;;;;;;;4975184;28;20026;-68
2023/11/21 22:44:10;;;;;;;10.98;9.88;;;;;;;;;;4978886;28;20097;-69
2023/11/21 22:46:45;;;;;;;17.40;15.57;;;;;;;;;;4978716;28;20134;-70
2023/11/21 22:49:11;;;;;;;11.20;10.02;;;;;;;;;;4979069;28;20354;-69
2023/11/21 22:51:36;;;;;;;41.28;35.67;;;;;;;;;;4961891;28;20031;-68
2023/11/21 22:54:02;;;;;;;32.35;25.60;;;;;;;;;;4961656;28;20027;-69
2023/11/21 22:56:28;;;;;;;44.90;28.85;;;;;;;;;;4979064;28;20026;-69
2023/11/21 22:58:53;;;;;;;135.27;84.53;;;;;;;;;;4978815;28;20027;-69
2023/11/21 23:01:21;;;;;;;120.13;67.40;;;;;;;;;;4979066;28;20472;-69
2023/11/21 23:03:47;;;;;;;10.02;9.02;;;;;;;;;;4978940;28;20023;-69
2023/11/21 23:06:16;;;;;;;64.55;35.85;;;;;;;;;;4978890;28;20041;-68
2023/11/21 23:08:42;;;;;;;81.53;44.85;;;;;;;;;;4978559;28;20043;-68
2023/11/21 23:11:08;;;;;;;93.63;48.72;;;;;;;;;;4978752;28;20081;-69
2023/11/21 23:13:34;;;;;;;9.15;8.23;;;;;;;;;;4978641;28;20031;-68
2023/11/21 23:15:59;;;;;;;9.80;8.90;;;;;;;;;;4978607;28;20026;-68
2023/11/21 23:18:27;;;;;;;220.63;108.45;;;;;;;;;;4961398;28;20097;-68
2023/11/21 23:20:57;;;;;;;166.38;85.78;;;;;;;;;;4978447;28;20094;-70
2023/11/21 23:23:24;;;;;;;28.30;19.02;;;;;;;;;;4961081;28;20027;-67
2023/11/21 23:25:50;;;;;;;138.45;73.78;;;;;;;;;;4961686;28;20041;-67
2023/11/21 23:28:19;;;;;;;431.02;251.20;;;;;;;;;;4978459;28;20082;-68
2023/11/21 23:30:45;;;;;;;51.90;30.75;;;;;;;;;;4978143;28;20124;-68
2023/11/21 23:33:10;;;;;;;71.47;38.45;;;;;;;;;;4978399;28;20026;-68
2023/11/21 23:35:35;;;;;;;240.15;113.47;;;;;;;;;;4978084;28;20041;-68
2023/11/21 23:38:01;;;;;;;90.05;56.33;;;;;;;;;;4978329;28;20039;-68
2023/11/21 23:40:26;;;;;;;173.43;99.30;;;;;;;;;;4977731;28;20035;-68
2023/11/21 23:42:51;;;;;;;32.80;21.17;;;;;;;;;;4977878;28;20118;-68
2023/11/21 23:45:17;;;;;;;10.95;9.82;;;;;;;;;;4961071;28;20035;-68
2023/11/21 23:47:42;;;;;;;13.10;11.75;;;;;;;;;;4957287;29;20133;-68
2023/11/21 23:50:08;;;;;;;42.33;27.50;;;;;;;;;;4959032;28;20039;-68
2023/11/21 23:52:34;;;;;;;140.57;76.88;;;;;;;;;;4957552;29;20038;-68
2023/11/21 23:54:59;;;;;;;16.48;13.32;;;;;;;;;;4957243;28;20011;-68
2023/11/21 23:57:24;;;;;;;89.40;43.40;;;;;;;;;;4941422;29;20356;-70
2023/11/21 23:59:50;;;;;;;10.75;9.75;;;;;;;;;;4958441;28;20112;-70
